Hlavní strana
METAR-TAF:

METAR-TAF

Letiště :

Stavanger, Norsko

zeměpisná šířka: 58-53N, zeměpisná délka: 005-38E, výška: 0 m

Aktuální stav počasí

Zpráva byla vytvořena před 39 minutami, v 10:20 UTC
Jižní vítr 10 kt
Teplota 11°C
Vlhkost vzduchu 87%
Tlak 1012 hPa
Viditelnost 10 km a více
Skoro jasno ve výšce 1500 ft
Polojasno ve výšce 2500 ft
Oblačno až skoro zataženo ve výšce 4000 ft

METAR: ENZV 231020Z 18010KT 9999 FEW015 SCT025 BKN040 11/09 Q1012 NOSIG

Čas: 12:59 (10:59 UTC)

Předpověď počasí

Předpověď platná od 23 v 06 UTC do 24 v 06 UTC
Jižní vítr 12 kt
Viditelnost 10 km a více
Skoro jasno ve výšce 1200 ft
Oblačno až skoro zataženo ve výšce 2000 ft
Pravděpodobnost 40% :
Dočasný
od 23 v 06 UTC do 24 v 06 UTC
Oblačno až skoro zataženo ve výšce 1200 ft

TAF: ENZV 2306/2406 18012KT 9999 FEW012 BKN020 PROB40 TEMPO 2306/2406 BKN012

Stav a předpovědi počasí z více než 4 000 letišť (zprávy METAR a TAF).

Červené a žluté tečky na mapě představují dostupné meteorologické stanice.

Když kurzor umístíte na tečku, zobrazí se název stanice.

Pak kliknutím zobrazíte stav a předpověď počasí.

Chcete-li změnit mapu, kliknutím na zelené tlačítko se znaménkem +mapu přiblížíte, kliknutím na zelené tlačítko se znaménkem – mapu oddálíte a kliknutím na zelené šipky přejdete na sousední mapy.


METAR-TAF: